sensor_id;sensor_type;location;lat;lon;timestamp;pressure;altitude;pressure_sealevel;temperature;humidity
21730;BME280;11027;51.030;13.812;2024-03-06T00:01:28;100443.47;;;5.87;70.56
21730;BME280;11027;51.030;13.812;2024-03-06T00:03:53;100455.13;;;5.87;70.42
21730;BME280;11027;51.030;13.812;2024-03-06T00:06:18;100452.84;;;5.82;70.59
21730;BME280;11027;51.030;13.812;2024-03-06T00:08:44;100457.25;;;5.84;70.71
21730;BME280;11027;51.030;13.812;2024-03-06T00:11:09;100455.56;;;5.82;70.85
21730;BME280;11027;51.030;13.812;2024-03-06T00:13:34;100453.84;;;5.81;70.88
21730;BME280;11027;51.030;13.812;2024-03-06T00:15:59;100452.00;;;5.82;70.82
21730;BME280;11027;51.030;13.812;2024-03-06T00:18:25;100458.41;;;5.81;70.81
21730;BME280;11027;51.030;13.812;2024-03-06T00:20:50;100458.97;;;5.85;70.96
21730;BME280;11027;51.030;13.812;2024-03-06T00:23:15;100458.97;;;5.85;71.03
21730;BME280;11027;51.030;13.812;2024-03-06T00:25:40;100467.94;;;5.85;70.97
21730;BME280;11027;51.030;13.812;2024-03-06T00:28:06;100467.09;;;5.85;70.92
21730;BME280;11027;51.030;13.812;2024-03-06T00:30:31;100467.22;;;5.83;70.97
21730;BME280;11027;51.030;13.812;2024-03-06T00:32:56;100470.63;;;5.85;70.91
21730;BME280;11027;51.030;13.812;2024-03-06T00:35:21;100467.50;;;5.90;71.05
21730;BME280;11027;51.030;13.812;2024-03-06T00:37:47;100468.25;;;5.92;71.06
21730;BME280;11027;51.030;13.812;2024-03-06T00:40:12;100468.38;;;5.90;71.22
21730;BME280;11027;51.030;13.812;2024-03-06T00:42:38;100470.94;;;5.92;71.18
21730;BME280;11027;51.030;13.812;2024-03-06T00:45:05;100476.09;;;5.95;71.09
21730;BME280;11027;51.030;13.812;2024-03-06T00:47:31;100472.41;;;5.96;71.05
21730;BME280;11027;51.030;13.812;2024-03-06T00:49:56;100476.94;;;5.95;71.17
21730;BME280;11027;51.030;13.812;2024-03-06T00:52:21;100473.47;;;5.93;71.08
21730;BME280;11027;51.030;13.812;2024-03-06T00:54:47;100476.34;;;5.92;70.96
21730;BME280;11027;51.030;13.812;2024-03-06T00:57:12;100472.78;;;5.91;70.92
21730;BME280;11027;51.030;13.812;2024-03-06T00:59:38;100474.34;;;5.94;70.70
21730;BME280;11027;51.030;13.812;2024-03-06T01:02:03;100480.50;;;5.96;70.61
21730;BME280;11027;51.030;13.812;2024-03-06T01:04:28;100478.03;;;5.93;70.51
21730;BME280;11027;51.030;13.812;2024-03-06T01:06:53;100479.19;;;5.90;70.33
21730;BME280;11027;51.030;13.812;2024-03-06T01:09:19;100477.59;;;5.88;70.38
21730;BME280;11027;51.030;13.812;2024-03-06T01:11:44;100484.88;;;5.87;70.13
21730;BME280;11027;51.030;13.812;2024-03-06T01:14:12;100480.59;;;5.85;70.13
21730;BME280;11027;51.030;13.812;2024-03-06T01:16:37;100490.72;;;5.82;70.15
21730;BME280;11027;51.030;13.812;2024-03-06T01:19:02;100487.28;;;5.80;70.00
21730;BME280;11027;51.030;13.812;2024-03-06T01:21:27;100488.28;;;5.79;70.07
21730;BME280;11027;51.030;13.812;2024-03-06T01:23:54;100488.59;;;5.76;70.54
21730;BME280;11027;51.030;13.812;2024-03-06T01:26:19;100485.72;;;5.68;70.36
21730;BME280;11027;51.030;13.812;2024-03-06T01:28:45;100489.97;;;5.61;70.73
21730;BME280;11027;51.030;13.812;2024-03-06T01:31:10;100494.25;;;5.54;70.97
21730;BME280;11027;51.030;13.812;2024-03-06T01:33:35;100494.81;;;5.48;71.12
21730;BME280;11027;51.030;13.812;2024-03-06T01:36:00;100494.50;;;5.41;71.47
21730;BME280;11027;51.030;13.812;2024-03-06T01:38:26;100495.63;;;5.38;71.46
21730;BME280;11027;51.030;13.812;2024-03-06T01:40:51;100505.88;;;5.35;71.47
21730;BME280;11027;51.030;13.812;2024-03-06T01:43:19;100501.34;;;5.35;71.56
21730;BME280;11027;51.030;13.812;2024-03-06T01:45:45;100494.22;;;5.34;71.60
21730;BME280;11027;51.030;13.812;2024-03-06T01:48:12;100497.63;;;5.36;71.11
21730;BME280;11027;51.030;13.812;2024-03-06T01:50:37;100499.59;;;5.34;71.72
21730;BME280;11027;51.030;13.812;2024-03-06T01:53:02;100501.00;;;5.29;71.70
21730;BME280;11027;51.030;13.812;2024-03-06T01:55:28;100506.84;;;5.24;71.85
21730;BME280;11027;51.030;13.812;2024-03-06T01:57:53;100516.94;;;5.22;72.03
21730;BME280;11027;51.030;13.812;2024-03-06T02:00:19;100506.38;;;5.19;72.30
21730;BME280;11027;51.030;13.812;2024-03-06T02:02:46;100507.66;;;5.15;72.31
21730;BME280;11027;51.030;13.812;2024-03-06T02:05:11;100507.66;;;5.15;72.30
21730;BME280;11027;51.030;13.812;2024-03-06T02:07:38;100514.31;;;5.11;72.42
21730;BME280;11027;51.030;13.812;2024-03-06T02:10:07;100514.63;;;5.08;72.55
21730;BME280;11027;51.030;13.812;2024-03-06T02:12:35;100504.34;;;5.01;72.60
21730;BME280;11027;51.030;13.812;2024-03-06T02:15:00;100516.28;;;4.99;72.70
21730;BME280;11027;51.030;13.812;2024-03-06T02:17:27;100509.47;;;4.95;72.80
21730;BME280;11027;51.030;13.812;2024-03-06T02:19:55;100505.56;;;4.88;72.80
21730;BME280;11027;51.030;13.812;2024-03-06T02:22:20;100509.94;;;4.79;72.82
21730;BME280;11027;51.030;13.812;2024-03-06T02:24:48;100511.22;;;4.75;72.86
21730;BME280;11027;51.030;13.812;2024-03-06T02:27:13;100510.50;;;4.73;72.86
21730;BME280;11027;51.030;13.812;2024-03-06T02:29:38;100504.50;;;4.69;72.93
21730;BME280;11027;51.030;13.812;2024-03-06T02:32:04;100512.72;;;4.68;72.96
21730;BME280;11027;51.030;13.812;2024-03-06T02:34:29;100510.75;;;4.70;73.22
21730;BME280;11027;51.030;13.812;2024-03-06T02:36:57;100516.16;;;4.70;73.00
21730;BME280;11027;51.030;13.812;2024-03-06T02:39:23;100521.81;;;4.67;73.05
21730;BME280;11027;51.030;13.812;2024-03-06T02:41:48;100525.38;;;4.67;73.20
21730;BME280;11027;51.030;13.812;2024-03-06T02:44:14;100524.06;;;4.61;73.19
21730;BME280;11027;51.030;13.812;2024-03-06T02:46:39;100533.41;;;4.57;73.04
21730;BME280;11027;51.030;13.812;2024-03-06T02:49:04;100536.50;;;4.53;73.41
21730;BME280;11027;51.030;13.812;2024-03-06T02:51:31;100540.31;;;4.50;73.28
21730;BME280;11027;51.030;13.812;2024-03-06T02:53:56;100542.44;;;4.47;73.20
21730;BME280;11027;51.030;13.812;2024-03-06T02:56:21;100546.97;;;4.46;73.05
21730;BME280;11027;51.030;13.812;2024-03-06T02:58:47;100544.97;;;4.48;73.13
21730;BME280;11027;51.030;13.812;2024-03-06T03:01:14;100546.09;;;4.46;73.46
21730;BME280;11027;51.030;13.812;2024-03-06T03:03:42;100543.53;;;4.44;73.52
21730;BME280;11027;51.030;13.812;2024-03-06T03:06:08;100541.56;;;4.46;73.88
21730;BME280;11027;51.030;13.812;2024-03-06T03:08:33;100536.16;;;4.46;74.14
21730;BME280;11027;51.030;13.812;2024-03-06T03:10:58;100537.56;;;4.40;74.28
21730;BME280;11027;51.030;13.812;2024-03-06T03:13:24;100536.69;;;4.40;74.32
21730;BME280;11027;51.030;13.812;2024-03-06T03:15:49;100532.44;;;4.37;74.30
21730;BME280;11027;51.030;13.812;2024-03-06T03:18:14;100535.00;;;4.39;74.43
21730;BME280;11027;51.030;13.812;2024-03-06T03:20:40;100539.78;;;4.35;74.45
21730;BME280;11027;51.030;13.812;2024-03-06T03:23:05;100555.38;;;4.32;74.28
21730;BME280;11027;51.030;13.812;2024-03-06T03:25:31;100555.66;;;4.29;74.41
21730;BME280;11027;51.030;13.812;2024-03-06T03:27:56;100554.94;;;4.27;74.42
21730;BME280;11027;51.030;13.812;2024-03-06T03:30:21;100555.91;;;4.26;74.73
21730;BME280;11027;51.030;13.812;2024-03-06T03:32:47;100560.69;;;4.22;74.96
21730;BME280;11027;51.030;13.812;2024-03-06T03:35:13;100557.66;;;4.15;75.00
21730;BME280;11027;51.030;13.812;2024-03-06T03:37:39;100558.69;;;4.14;75.35
21730;BME280;11027;51.030;13.812;2024-03-06T03:40:06;100562.09;;;4.16;75.79
21730;BME280;11027;51.030;13.812;2024-03-06T03:42:31;100573.72;;;4.17;76.06
21730;BME280;11027;51.030;13.812;2024-03-06T03:44:57;100572.59;;;4.19;75.98
21730;BME280;11027;51.030;13.812;2024-03-06T03:47:22;100564.78;;;4.16;76.04
21730;BME280;11027;51.030;13.812;2024-03-06T03:49:47;100575.09;;;4.11;76.12
21730;BME280;11027;51.030;13.812;2024-03-06T03:52:13;100580.50;;;4.11;76.26
21730;BME280;11027;51.030;13.812;2024-03-06T03:54:38;100586.16;;;4.08;76.50
21730;BME280;11027;51.030;13.812;2024-03-06T03:57:04;100582.47;;;4.09;76.45
21730;BME280;11027;51.030;13.812;2024-03-06T03:59:29;100582.22;;;4.12;76.60
21730;BME280;11027;51.030;13.812;2024-03-06T04:01:54;100585.63;;;4.14;76.55
21730;BME280;11027;51.030;13.812;2024-03-06T04:04:22;100599.84;;;4.16;76.39
21730;BME280;11027;51.030;13.812;2024-03-06T04:06:47;100593.22;;;4.20;76.51
21730;BME280;11027;51.030;13.812;2024-03-06T04:09:12;100588.28;;;4.26;76.17
21730;BME280;11027;51.030;13.812;2024-03-06T04:11:39;100598.81;;;4.29;76.37
21730;BME280;11027;51.030;13.812;2024-03-06T04:14:05;100594.88;;;4.33;76.14
21730;BME280;11027;51.030;13.812;2024-03-06T04:16:31;100598.03;;;4.38;76.00
21730;BME280;11027;51.030;13.812;2024-03-06T04:18:56;100590.66;;;4.40;75.89
21730;BME280;11027;51.030;13.812;2024-03-06T04:21:22;100596.78;;;4.42;76.12
21730;BME280;11027;51.030;13.812;2024-03-06T04:23:47;100596.03;;;4.40;76.27
21730;BME280;11027;51.030;13.812;2024-03-06T04:26:13;100599.75;;;4.39;76.17
21730;BME280;11027;51.030;13.812;2024-03-06T04:28:38;100609.69;;;4.38;76.23
21730;BME280;11027;51.030;13.812;2024-03-06T04:31:04;100603.41;;;4.38;76.21
21730;BME280;11027;51.030;13.812;2024-03-06T04:33:29;100612.22;;;4.40;76.18
21730;BME280;11027;51.030;13.812;2024-03-06T04:35:55;100610.25;;;4.42;76.42
21730;BME280;11027;51.030;13.812;2024-03-06T04:38:20;100616.38;;;4.44;76.13
21730;BME280;11027;51.030;13.812;2024-03-06T04:40:46;100618.22;;;4.44;76.10
21730;BME280;11027;51.030;13.812;2024-03-06T04:43:11;100614.69;;;4.43;76.03
21730;BME280;11027;51.030;13.812;2024-03-06T04:45:36;100621.06;;;4.42;76.07
21730;BME280;11027;51.030;13.812;2024-03-06T04:48:01;100626.44;;;4.42;76.00
21730;BME280;11027;51.030;13.812;2024-03-06T04:50:27;100622.50;;;4.46;76.13
21730;BME280;11027;51.030;13.812;2024-03-06T04:52:52;100625.94;;;4.48;76.16
21730;BME280;11027;51.030;13.812;2024-03-06T04:55:18;100633.28;;;4.46;76.11
21730;BME280;11027;51.030;13.812;2024-03-06T04:57:47;100634.19;;;4.47;76.14
21730;BME280;11027;51.030;13.812;2024-03-06T05:00:13;100631.59;;;4.45;76.12
21730;BME280;11027;51.030;13.812;2024-03-06T05:02:39;100635.03;;;4.47;75.87
21730;BME280;11027;51.030;13.812;2024-03-06T05:05:04;100644.09;;;4.46;76.18
21730;BME280;11027;51.030;13.812;2024-03-06T05:07:31;100636.28;;;4.43;76.05
21730;BME280;11027;51.030;13.812;2024-03-06T05:09:57;100636.50;;;4.40;76.27
21730;BME280;11027;51.030;13.812;2024-03-06T05:12:23;100635.78;;;4.38;76.27
21730;BME280;11027;51.030;13.812;2024-03-06T05:14:48;100634.34;;;4.34;76.29
21730;BME280;11027;51.030;13.812;2024-03-06T05:17:13;100644.19;;;4.24;76.29
21730;BME280;11027;51.030;13.812;2024-03-06T05:19:39;100642.50;;;4.23;76.42
21730;BME280;11027;51.030;13.812;2024-03-06T05:22:04;100641.16;;;4.17;76.44
21730;BME280;11027;51.030;13.812;2024-03-06T05:24:30;100655.75;;;4.14;76.52
21730;BME280;11027;51.030;13.812;2024-03-06T05:26:55;100654.88;;;4.14;76.60
21730;BME280;11027;51.030;13.812;2024-03-06T05:29:21;100650.59;;;4.11;76.91
21730;BME280;11027;51.030;13.812;2024-03-06T05:31:46;100661.66;;;4.08;76.96
21730;BME280;11027;51.030;13.812;2024-03-06T05:34:11;100667.28;;;4.05;76.89
21730;BME280;11027;51.030;13.812;2024-03-06T05:36:37;100670.25;;;4.02;76.79
21730;BME280;11027;51.030;13.812;2024-03-06T05:39:02;100671.50;;;3.98;77.08
21730;BME280;11027;51.030;13.812;2024-03-06T05:41:32;100677.97;;;3.95;76.97
21730;BME280;11027;51.030;13.812;2024-03-06T05:43:57;100673.69;;;3.93;77.22
21730;BME280;11027;51.030;13.812;2024-03-06T05:46:22;100673.94;;;3.90;77.50
21730;BME280;11027;51.030;13.812;2024-03-06T05:48:48;100684.25;;;3.85;77.27
21730;BME280;11027;51.030;13.812;2024-03-06T05:51:13;100682.28;;;3.75;77.18
21730;BME280;11027;51.030;13.812;2024-03-06T05:53:38;100689.41;;;3.65;78.00
21730;BME280;11027;51.030;13.812;2024-03-06T05:56:06;100687.19;;;3.59;77.79
21730;BME280;11027;51.030;13.812;2024-03-06T05:58:31;100687.47;;;3.56;78.13
21730;BME280;11027;51.030;13.812;2024-03-06T06:00:57;100702.13;;;3.63;78.24
21730;BME280;11027;51.030;13.812;2024-03-06T06:03:23;100694.94;;;3.64;78.32
21730;BME280;11027;51.030;13.812;2024-03-06T06:05:48;100707.03;;;3.69;78.33
21730;BME280;11027;51.030;13.812;2024-03-06T06:08:13;100709.50;;;3.72;77.93
21730;BME280;11027;51.030;13.812;2024-03-06T06:10:38;100715.72;;;3.73;78.07
21730;BME280;11027;51.030;13.812;2024-03-06T06:13:04;100719.78;;;3.78;78.07
21730;BME280;11027;51.030;13.812;2024-03-06T06:15:29;100721.47;;;3.79;77.75
21730;BME280;11027;51.030;13.812;2024-03-06T06:17:55;100718.06;;;3.77;77.83
21730;BME280;11027;51.030;13.812;2024-03-06T06:20:20;100727.38;;;3.73;77.93
21730;BME280;11027;51.030;13.812;2024-03-06T06:22:45;100739.88;;;3.74;78.00
21730;BME280;11027;51.030;13.812;2024-03-06T06:25:11;100736.19;;;3.75;78.01
21730;BME280;11027;51.030;13.812;2024-03-06T06:27:37;100746.22;;;3.73;78.04
21730;BME280;11027;51.030;13.812;2024-03-06T06:30:03;100747.97;;;3.74;78.17
21730;BME280;11027;51.030;13.812;2024-03-06T06:32:29;100746.97;;;3.75;78.09
21730;BME280;11027;51.030;13.812;2024-03-06T06:34:54;100748.94;;;3.73;78.08
21730;BME280;11027;51.030;13.812;2024-03-06T06:37:19;100749.66;;;3.75;78.37
21730;BME280;11027;51.030;13.812;2024-03-06T06:39:45;100757.50;;;3.78;78.28
21730;BME280;11027;51.030;13.812;2024-03-06T06:42:10;100753.59;;;3.83;78.27
21730;BME280;11027;51.030;13.812;2024-03-06T06:44:36;100758.72;;;3.86;78.20
21730;BME280;11027;51.030;13.812;2024-03-06T06:47:02;100756.53;;;3.91;78.22
21730;BME280;11027;51.030;13.812;2024-03-06T06:49:27;100755.19;;;3.96;77.89
21730;BME280;11027;51.030;13.812;2024-03-06T06:51:52;100762.91;;;4.01;78.00
21730;BME280;11027;51.030;13.812;2024-03-06T06:54:17;100751.88;;;4.04;77.91
21730;BME280;11027;51.030;13.812;2024-03-06T06:56:43;100759.59;;;4.09;77.82
21730;BME280;11027;51.030;13.812;2024-03-06T06:59:08;100755.03;;;4.09;77.84
21730;BME280;11027;51.030;13.812;2024-03-06T07:01:33;100760.44;;;4.09;77.88
21730;BME280;11027;51.030;13.812;2024-03-06T07:03:59;100758.72;;;4.08;77.84
21730;BME280;11027;51.030;13.812;2024-03-06T07:06:25;100755.31;;;4.06;78.05
21730;BME280;11027;51.030;13.812;2024-03-06T07:08:50;100769.03;;;4.03;78.27
21730;BME280;11027;51.030;13.812;2024-03-06T07:11:19;100764.84;;;3.99;78.49
21730;BME280;11027;51.030;13.812;2024-03-06T07:13:45;100768.56;;;3.98;78.65
21730;BME280;11027;51.030;13.812;2024-03-06T07:16:10;100764.84;;;3.99;78.67
21730;BME280;11027;51.030;13.812;2024-03-06T07:18:36;100770.03;;;4.02;78.75
21730;BME280;11027;51.030;13.812;2024-03-06T07:21:01;100765.47;;;4.03;78.80
21730;BME280;11027;51.030;13.812;2024-03-06T07:23:27;100769.75;;;4.05;78.81
21730;BME280;11027;51.030;13.812;2024-03-06T07:25:52;100779.06;;;4.12;78.74
21730;BME280;11027;51.030;13.812;2024-03-06T07:28:18;100767.66;;;4.20;78.52
21730;BME280;11027;51.030;13.812;2024-03-06T07:30:44;100775.13;;;4.28;78.53
21730;BME280;11027;51.030;13.812;2024-03-06T07:33:09;100776.47;;;4.33;77.92
21730;BME280;11027;51.030;13.812;2024-03-06T07:35:34;100778.94;;;4.36;77.87
21730;BME280;11027;51.030;13.812;2024-03-06T07:38:01;100785.78;;;4.40;77.86
21730;BME280;11027;51.030;13.812;2024-03-06T07:40:28;100779.00;;;4.46;77.64
21730;BME280;11027;51.030;13.812;2024-03-06T07:42:53;100783.66;;;4.44;77.45
21730;BME280;11027;51.030;13.812;2024-03-06T07:45:21;100791.53;;;4.47;77.43
21730;BME280;11027;51.030;13.812;2024-03-06T07:47:46;100784.16;;;4.49;77.44
21730;BME280;11027;51.030;13.812;2024-03-06T07:50:11;100788.31;;;4.53;77.36
21730;BME280;11027;51.030;13.812;2024-03-06T07:52:37;100785.63;;;4.53;77.46
21730;BME280;11027;51.030;13.812;2024-03-06T07:55:03;100787.31;;;4.54;77.38
21730;BME280;11027;51.030;13.812;2024-03-06T07:57:28;100786.34;;;4.55;77.39
21730;BME280;11027;51.030;13.812;2024-03-06T07:59:54;100785.13;;;4.59;77.37
21730;BME280;11027;51.030;13.812;2024-03-06T08:02:20;100786.56;;;4.64;77.33
21730;BME280;11027;51.030;13.812;2024-03-06T08:04:45;100795.41;;;4.66;77.31
21730;BME280;11027;51.030;13.812;2024-03-06T08:07:12;100795.16;;;4.69;77.30
21730;BME280;11027;51.030;13.812;2024-03-06T08:09:37;100787.78;;;4.71;77.20
21730;BME280;11027;51.030;13.812;2024-03-06T08:12:03;100794.66;;;4.75;77.14
21730;BME280;11027;51.030;13.812;2024-03-06T08:14:28;100796.09;;;4.79;76.97
21730;BME280;11027;51.030;13.812;2024-03-06T08:16:54;100794.13;;;4.81;77.18
21730;BME280;11027;51.030;13.812;2024-03-06T08:19:19;100796.69;;;4.82;77.20
21730;BME280;11027;51.030;13.812;2024-03-06T08:21:44;100799.38;;;4.82;77.26
21730;BME280;11027;51.030;13.812;2024-03-06T08:24:09;100804.41;;;4.87;77.30
21730;BME280;11027;51.030;13.812;2024-03-06T08:26:35;100803.19;;;4.91;77.38
21730;BME280;11027;51.030;13.812;2024-03-06T08:29:01;100792.81;;;4.96;77.19
21730;BME280;11027;51.030;13.812;2024-03-06T08:31:26;100803.38;;;4.99;77.03
21730;BME280;11027;51.030;13.812;2024-03-06T08:33:51;100801.13;;;5.05;76.90
21730;BME280;11027;51.030;13.812;2024-03-06T08:36:18;100806.28;;;5.08;76.93
21730;BME280;11027;51.030;13.812;2024-03-06T08:38:44;100806.03;;;5.11;76.69
21730;BME280;11027;51.030;13.812;2024-03-06T08:41:09;100804.94;;;5.13;76.86
21730;BME280;11027;51.030;13.812;2024-03-06T08:43:34;100795.81;;;5.14;76.82
21730;BME280;11027;51.030;13.812;2024-03-06T08:46:00;100803.53;;;5.19;76.85
21730;BME280;11027;51.030;13.812;2024-03-06T08:48:25;100803.03;;;5.25;76.72
21730;BME280;11027;51.030;13.812;2024-03-06T08:50:50;100801.06;;;5.27;76.72
21730;BME280;11027;51.030;13.812;2024-03-06T08:53:16;100803.34;;;5.32;76.77
21730;BME280;11027;51.030;13.812;2024-03-06T08:55:41;100803.97;;;5.35;76.48
21730;BME280;11027;51.030;13.812;2024-03-06T08:58:07;100805.13;;;5.43;76.70
21730;BME280;11027;51.030;13.812;2024-03-06T09:00:34;100801.16;;;5.47;76.55
21730;BME280;11027;51.030;13.812;2024-03-06T09:02:59;100807.78;;;5.54;76.38
21730;BME280;11027;51.030;13.812;2024-03-06T09:05:25;100803.81;;;5.58;76.34
21730;BME280;11027;51.030;13.812;2024-03-06T09:07:51;100804.53;;;5.60;76.38
21730;BME280;11027;51.030;13.812;2024-03-06T09:10:17;100808.69;;;5.64;76.34
21730;BME280;11027;51.030;13.812;2024-03-06T09:12:44;100810.00;;;5.70;76.32
21730;BME280;11027;51.030;13.812;2024-03-06T09:15:09;100812.03;;;5.77;76.11
21730;BME280;11027;51.030;13.812;2024-03-06T09:17:36;100812.50;;;5.82;76.26
21730;BME280;11027;51.030;13.812;2024-03-06T09:20:02;100806.81;;;5.86;76.14
21730;BME280;11027;51.030;13.812;2024-03-06T09:22:38;100809.72;;;5.94;76.03
21730;BME280;11027;51.030;13.812;2024-03-06T09:25:04;100816.31;;;6.01;76.00
21730;BME280;11027;51.030;13.812;2024-03-06T09:27:29;100816.06;;;6.04;76.04
21730;BME280;11027;51.030;13.812;2024-03-06T09:29:55;100819.19;;;6.09;75.54
21730;BME280;11027;51.030;13.812;2024-03-06T09:32:21;100816.22;;;6.12;75.28
21730;BME280;11027;51.030;13.812;2024-03-06T09:34:47;100811.25;;;6.17;74.99
21730;BME280;11027;51.030;13.812;2024-03-06T09:37:13;100814.44;;;6.23;74.74
21730;BME280;11027;51.030;13.812;2024-03-06T09:39:38;100817.56;;;6.28;74.61
21730;BME280;11027;51.030;13.812;2024-03-06T09:42:04;100815.03;;;6.36;74.46
21730;BME280;11027;51.030;13.812;2024-03-06T09:44:29;100814.47;;;6.42;74.17
21730;BME280;11027;51.030;13.812;2024-03-06T09:46:59;100820.22;;;6.49;73.96
21730;BME280;11027;51.030;13.812;2024-03-06T09:49:26;100820.50;;;6.55;73.46
21730;BME280;11027;51.030;13.812;2024-03-06T09:51:53;100827.09;;;6.63;73.48
21730;BME280;11027;51.030;13.812;2024-03-06T09:54:20;100828.22;;;6.70;73.12
21730;BME280;11027;51.030;13.812;2024-03-06T09:56:47;100827.66;;;6.76;72.39
21730;BME280;11027;51.030;13.812;2024-03-06T09:59:13;100826.84;;;6.85;72.00
21730;BME280;11027;51.030;13.812;2024-03-06T10:04:22;100830.56;;;7.04;70.69
21730;BME280;11027;51.030;13.812;2024-03-06T10:06:48;100834.00;;;7.15;70.38
21730;BME280;11027;51.030;13.812;2024-03-06T10:09:17;100825.00;;;7.25;70.03
21730;BME280;11027;51.030;13.812;2024-03-06T10:11:42;100826.00;;;7.33;69.65
21730;BME280;11027;51.030;13.812;2024-03-06T10:14:08;100823.69;;;7.38;69.21
21730;BME280;11027;51.030;13.812;2024-03-06T10:16:36;100830.28;;;7.46;68.82
21730;BME280;11027;51.030;13.812;2024-03-06T10:19:18;100829.53;;;7.53;67.53
21730;BME280;11027;51.030;13.812;2024-03-06T10:21:46;100836.94;;;7.61;67.14
21730;BME280;11027;51.030;13.812;2024-03-06T10:24:17;100836.78;;;7.72;66.91
21730;BME280;11027;51.030;13.812;2024-03-06T10:26:43;100840.78;;;7.88;66.57
21730;BME280;11027;51.030;13.812;2024-03-06T10:29:09;100837.16;;;7.97;66.86
21730;BME280;11027;51.030;13.812;2024-03-06T10:31:34;100839.38;;;8.11;66.73
21730;BME280;11027;51.030;13.812;2024-03-06T10:33:59;100838.91;;;8.26;66.85
21730;BME280;11027;51.030;13.812;2024-03-06T10:36:31;100839.44;;;8.39;66.61
21730;BME280;11027;51.030;13.812;2024-03-06T10:38:59;100834.59;;;8.33;66.15
21730;BME280;11027;51.030;13.812;2024-03-06T10:41:28;100829.16;;;8.33;66.25
21730;BME280;11027;51.030;13.812;2024-03-06T10:43:59;100839.19;;;8.32;66.43
21730;BME280;11027;51.030;13.812;2024-03-06T10:46:27;100837.44;;;8.41;66.98
21730;BME280;11027;51.030;13.812;2024-03-06T10:48:53;100843.28;;;8.46;66.26
21730;BME280;11027;51.030;13.812;2024-03-06T10:51:20;100839.41;;;8.49;66.32
21730;BME280;11027;51.030;13.812;2024-03-06T10:53:47;100840.84;;;8.53;65.79
21730;BME280;11027;51.030;13.812;2024-03-06T10:56:17;100841.69;;;8.53;65.64
21730;BME280;11027;51.030;13.812;2024-03-06T10:58:44;100846.81;;;8.56;65.70
21730;BME280;11027;51.030;13.812;2024-03-06T11:01:10;100837.66;;;8.57;65.99
21730;BME280;11027;51.030;13.812;2024-03-06T11:03:37;100840.94;;;8.61;66.05
21730;BME280;11027;51.030;13.812;2024-03-06T11:06:02;100850.03;;;8.70;66.23
21730;BME280;11027;51.030;13.812;2024-03-06T11:08:29;100846.06;;;8.82;65.31
21730;BME280;11027;51.030;13.812;2024-03-06T11:11:23;100850.06;;;8.88;63.93
21730;BME280;11027;51.030;13.812;2024-03-06T11:13:49;100852.91;;;8.86;62.72
21730;BME280;11027;51.030;13.812;2024-03-06T11:16:15;100854.63;;;8.87;62.85
21730;BME280;11027;51.030;13.812;2024-03-06T11:18:41;100851.59;;;8.90;62.54
21730;BME280;11027;51.030;13.812;2024-03-06T11:26:46;100856.38;;;8.78;62.42
21730;BME280;11027;51.030;13.812;2024-03-06T11:29:11;100848.09;;;8.80;62.88
21730;BME280;11027;51.030;13.812;2024-03-06T11:31:36;100850.66;;;8.81;62.66
21730;BME280;11027;51.030;13.812;2024-03-06T11:34:04;100851.06;;;8.87;62.68
21730;BME280;11027;51.030;13.812;2024-03-06T11:36:30;100852.63;;;8.89;62.65
21730;BME280;11027;51.030;13.812;2024-03-06T11:39:03;100849.59;;;8.92;62.54
21730;BME280;11027;51.030;13.812;2024-03-06T11:44:00;100858.72;;;9.01;62.09
21730;BME280;11027;51.030;13.812;2024-03-06T11:46:45;100850.44;;;9.11;62.32
21730;BME280;11027;51.030;13.812;2024-03-06T11:49:19;100854.97;;;9.20;61.83
21730;BME280;11027;51.030;13.812;2024-03-06T11:51:50;100856.69;;;9.21;61.38
21730;BME280;11027;51.030;13.812;2024-03-06T11:54:15;100855.19;;;9.27;61.53
21730;BME280;11027;51.030;13.812;2024-03-06T11:56:44;100856.09;;;9.27;61.64
21730;BME280;11027;51.030;13.812;2024-03-06T11:59:10;100857.84;;;9.36;61.89
21730;BME280;11027;51.030;13.812;2024-03-06T12:01:36;100864.53;;;9.42;61.74
21730;BME280;11027;51.030;13.812;2024-03-06T12:04:03;100854.19;;;9.46;61.48
21730;BME280;11027;51.030;13.812;2024-03-06T12:06:30;100865.38;;;9.43;61.64
21730;BME280;11027;51.030;13.812;2024-03-06T12:08:55;100859.94;;;9.43;61.83
21730;BME280;11027;51.030;13.812;2024-03-06T12:11:20;100863.69;;;9.41;61.72
21730;BME280;11027;51.030;13.812;2024-03-06T12:13:51;100864.91;;;9.47;61.83
21730;BME280;11027;51.030;13.812;2024-03-06T12:16:16;100870.19;;;9.49;61.79
21730;BME280;11027;51.030;13.812;2024-03-06T12:18:42;100861.03;;;9.50;61.06
21730;BME280;11027;51.030;13.812;2024-03-06T12:21:07;100866.78;;;9.47;60.69
21730;BME280;11027;51.030;13.812;2024-03-06T12:23:32;100870.81;;;9.43;60.52
21730;BME280;11027;51.030;13.812;2024-03-06T12:26:08;100869.13;;;9.41;60.89
21730;BME280;11027;51.030;13.812;2024-03-06T12:28:37;100871.38;;;9.46;60.80
21730;BME280;11027;51.030;13.812;2024-03-06T12:31:03;100865.78;;;9.48;60.37
21730;BME280;11027;51.030;13.812;2024-03-06T12:33:30;100874.78;;;9.48;59.76
21730;BME280;11027;51.030;13.812;2024-03-06T12:36:05;100876.59;;;9.39;59.29
21730;BME280;11027;51.030;13.812;2024-03-06T12:38:31;100872.84;;;9.40;59.75
21730;BME280;11027;51.030;13.812;2024-03-06T12:40:57;100872.22;;;9.47;59.16
21730;BME280;11027;51.030;13.812;2024-03-06T12:43:22;100864.75;;;9.49;58.81
21730;BME280;11027;51.030;13.812;2024-03-06T12:45:49;100858.59;;;9.65;59.15
21730;BME280;11027;51.030;13.812;2024-03-06T12:48:14;100855.22;;;9.89;59.05
21730;BME280;11027;51.030;13.812;2024-03-06T12:50:39;100854.78;;;10.01;58.18
21730;BME280;11027;51.030;13.812;2024-03-06T12:53:05;100857.78;;;10.16;57.85
21730;BME280;11027;51.030;13.812;2024-03-06T12:55:33;100859.94;;;10.31;57.48